createdAt,value
2023-03-24T00:01:30.520Z,4.60
2023-03-24T00:03:59.221Z,4.90
2023-03-24T00:06:27.792Z,4.45
2023-03-24T00:08:56.404Z,5.13
2023-03-24T00:11:26.459Z,4.45
2023-03-24T00:13:58.696Z,4.85
2023-03-24T00:16:27.625Z,5.22
2023-03-24T00:18:56.591Z,5.32
2023-03-24T00:21:26.606Z,5.82
2023-03-24T00:23:58.385Z,5.57
2023-03-24T00:26:28.365Z,5.50
2023-03-24T00:28:58.264Z,4.60
2023-03-24T00:31:27.415Z,5.22
2023-03-24T00:33:56.219Z,4.72
2023-03-24T00:36:29.160Z,4.65
2023-03-24T00:38:59.014Z,4.60
2023-03-24T00:41:29.072Z,5.05
2023-03-24T00:44:00.148Z,4.85
2023-03-24T00:46:29.107Z,4.68
2023-03-24T00:49:02.965Z,5.20
2023-03-24T00:51:34.859Z,4.60
2023-03-24T00:54:03.722Z,4.90
2023-03-24T00:56:38.202Z,4.85
2023-03-24T00:59:10.005Z,4.82
2023-03-24T01:01:40.940Z,4.57
2023-03-24T01:04:10.379Z,4.55
2023-03-24T01:06:39.777Z,4.63
2023-03-24T01:09:08.823Z,4.03
2023-03-24T01:11:41.823Z,4.20
2023-03-24T01:14:11.869Z,4.20
2023-03-24T01:16:42.129Z,3.92
2023-03-24T01:19:11.067Z,4.20
2023-03-24T01:24:10.771Z,4.68
2023-03-24T01:26:40.763Z,4.13
2023-03-24T01:29:09.294Z,4.53
2023-03-24T01:31:37.902Z,4.72
2023-03-24T01:34:06.851Z,4.57
2023-03-24T01:36:35.437Z,5.03
2023-03-24T01:39:05.339Z,4.38
2023-03-24T01:41:36.428Z,4.63
2023-03-24T01:44:30.261Z,4.75
2023-03-24T01:46:59.413Z,4.68
2023-03-24T01:49:32.926Z,5.10
2023-03-24T01:52:05.203Z,4.75
2023-03-24T01:54:39.135Z,4.78
2023-03-24T01:57:13.422Z,3.35
2023-03-24T01:59:49.948Z,2.83
2023-03-24T02:02:22.103Z,3.17
2023-03-24T02:04:54.554Z,2.50
2023-03-24T02:07:34.401Z,2.10
2023-03-24T02:10:06.868Z,1.60
2023-03-24T02:12:35.876Z,2.00
2023-03-24T02:15:07.846Z,1.83
2023-03-24T02:18:00.729Z,1.50
2023-03-24T02:21:09.137Z,1.50
2023-03-24T02:24:34.810Z,1.63
2023-03-24T02:27:16.103Z,1.73
2023-03-24T02:30:22.755Z,1.98
2023-03-24T02:34:00.816Z,2.13
2023-03-24T02:37:21.269Z,2.10
2023-03-24T02:40:07.956Z,1.73
2023-03-24T02:42:49.836Z,2.28
2023-03-24T02:45:28.151Z,1.88
2023-03-24T02:48:13.009Z,1.60
2023-03-24T02:50:51.168Z,1.88
2023-03-24T02:53:27.631Z,1.85
2023-03-24T02:56:02.050Z,1.83
2023-03-24T02:58:38.634Z,1.80
2023-03-24T03:01:13.912Z,1.88
2023-03-24T03:03:48.342Z,1.85
2023-03-24T03:06:21.777Z,2.28
2023-03-24T03:08:51.572Z,2.30
2023-03-24T03:11:21.430Z,2.60
2023-03-24T03:13:54.997Z,1.90
2023-03-24T03:16:26.060Z,2.38
2023-03-24T03:18:58.872Z,2.33
2023-03-24T03:21:32.525Z,2.00
2023-03-24T03:24:06.016Z,2.75
2023-03-24T03:26:36.470Z,2.10
2023-03-24T03:29:13.501Z,2.38
2023-03-24T03:31:45.742Z,3.03
2023-03-24T03:34:22.065Z,2.53
2023-03-24T03:36:58.068Z,2.50
2023-03-24T03:39:31.120Z,2.25
2023-03-24T03:42:01.126Z,2.80
2023-03-24T03:44:29.503Z,2.53
2023-03-24T03:46:57.969Z,2.40
2023-03-24T03:49:26.824Z,3.15
2023-03-24T03:51:55.805Z,2.25
2023-03-24T03:54:26.987Z,2.50
2023-03-24T03:56:55.952Z,3.58
2023-03-24T03:59:34.051Z,2.58
2023-03-24T04:02:17.386Z,2.55
2023-03-24T04:05:16.360Z,2.60
2023-03-24T04:08:08.386Z,2.88
2023-03-24T04:11:11.113Z,3.22
2023-03-24T04:13:49.769Z,2.45
2023-03-24T04:16:29.505Z,3.63
2023-03-24T04:19:15.203Z,2.70
2023-03-24T04:22:13.090Z,3.92
2023-03-24T04:24:49.880Z,3.42
2023-03-24T04:27:29.145Z,3.28
2023-03-24T04:30:10.558Z,3.80
2023-03-24T04:32:46.436Z,3.88
2023-03-24T04:35:31.903Z,3.38
2023-03-24T04:38:05.447Z,3.10
2023-03-24T04:40:36.931Z,3.53
2023-03-24T04:43:08.493Z,3.53
2023-03-24T04:45:37.166Z,3.83
2023-03-24T04:48:10.979Z,3.30
2023-03-24T04:50:43.216Z,3.97
2023-03-24T04:53:12.277Z,3.65
2023-03-24T04:56:00.114Z,3.85
2023-03-24T04:58:29.589Z,3.60
2023-03-24T05:00:58.795Z,3.58
2023-03-24T05:03:28.687Z,3.42
2023-03-24T05:05:57.494Z,3.92
2023-03-24T05:08:25.837Z,3.53
2023-03-24T05:10:54.179Z,4.63
2023-03-24T05:13:22.466Z,3.80
2023-03-24T05:15:51.006Z,4.03
2023-03-24T05:18:19.241Z,3.78
2023-03-24T05:20:48.908Z,3.90
2023-03-24T05:23:17.416Z,3.70
2023-03-24T05:25:47.836Z,3.35
2023-03-24T05:28:16.438Z,3.30
2023-03-24T05:30:44.791Z,3.28
2023-03-24T05:33:13.129Z,3.53
2023-03-24T05:35:41.743Z,3.88
2023-03-24T05:38:11.553Z,3.33
2023-03-24T05:40:39.904Z,3.58
2023-03-24T05:43:09.959Z,3.83
2023-03-24T05:45:38.331Z,2.90
2023-03-24T05:48:07.556Z,3.33
2023-03-24T05:50:35.847Z,2.95
2023-03-24T05:53:05.351Z,3.05
2023-03-24T05:55:35.153Z,3.75
2023-03-24T05:58:03.642Z,3.97
2023-03-24T06:00:33.438Z,2.97
2023-03-24T06:03:04.195Z,3.22
2023-03-24T06:05:34.545Z,2.83
2023-03-24T06:08:04.027Z,3.30
2023-03-24T06:10:32.393Z,3.03
2023-03-24T06:13:02.457Z,3.65
2023-03-24T06:15:30.875Z,2.95
2023-03-24T06:18:01.111Z,3.45
2023-03-24T06:20:29.648Z,2.72
2023-03-24T06:22:59.841Z,3.47
2023-03-24T06:25:28.894Z,2.90
2023-03-24T06:28:04.108Z,3.95
2023-03-24T06:30:34.125Z,3.42
2023-03-24T06:33:03.210Z,3.67
2023-03-24T06:35:31.688Z,2.35
2023-03-24T06:38:00.108Z,3.88
2023-03-24T06:40:28.716Z,2.78
2023-03-24T06:42:57.045Z,3.10
2023-03-24T06:45:25.711Z,4.55
2023-03-24T06:47:56.736Z,2.92
2023-03-24T06:50:26.910Z,3.58
2023-03-24T06:52:55.430Z,3.42
2023-03-24T06:55:23.713Z,4.28
2023-03-24T06:57:52.276Z,2.92
2023-03-24T07:00:21.222Z,3.92
2023-03-24T07:02:49.729Z,3.33
2023-03-24T07:05:19.672Z,3.65
2023-03-24T07:10:21.726Z,4.10
2023-03-24T07:12:50.101Z,3.63
2023-03-24T07:15:18.540Z,3.58
2023-03-24T07:17:47.294Z,4.03
2023-03-24T07:20:16.064Z,3.45
2023-03-24T07:22:45.786Z,3.25
2023-03-24T07:25:14.355Z,3.85
2023-03-24T07:27:43.203Z,3.72
2023-03-24T07:30:12.333Z,2.95
2023-03-24T07:32:42.383Z,3.15
2023-03-24T07:35:13.397Z,3.40
2023-03-24T07:37:42.121Z,3.35
2023-03-24T07:40:14.697Z,4.13
2023-03-24T07:42:44.504Z,3.55
2023-03-24T07:45:14.270Z,3.38
2023-03-24T07:47:46.011Z,3.92
2023-03-24T07:50:15.687Z,3.40
2023-03-24T07:52:50.465Z,2.47
2023-03-24T07:55:20.871Z,3.80
2023-03-24T07:57:51.371Z,3.90
2023-03-24T08:00:21.756Z,3.70
2023-03-24T08:02:52.919Z,3.28
2023-03-24T08:05:22.789Z,3.33
2023-03-24T08:07:54.432Z,3.17
2023-03-24T08:10:27.491Z,3.63
2023-03-24T08:12:56.821Z,4.00
2023-03-24T08:15:26.407Z,3.50
2023-03-24T08:17:56.608Z,2.83
2023-03-24T08:20:27.410Z,3.92
2023-03-24T08:22:56.075Z,3.17
2023-03-24T08:25:27.342Z,3.25
2023-03-24T08:27:56.500Z,3.28
2023-03-24T08:30:29.156Z,3.28
2023-03-24T08:33:00.542Z,4.05
2023-03-24T08:35:32.498Z,3.78
2023-03-24T08:38:02.260Z,3.17
2023-03-24T08:40:34.688Z,3.67
2023-03-24T08:43:08.488Z,4.68
2023-03-24T08:45:38.525Z,3.58
2023-03-24T08:48:10.506Z,3.33
2023-03-24T08:50:41.834Z,3.70
2023-03-24T08:53:11.610Z,3.08
2023-03-24T08:55:43.479Z,3.35
2023-03-24T08:58:15.616Z,3.50
2023-03-24T09:00:45.224Z,3.13
2023-03-24T09:03:18.349Z,3.47
2023-03-24T09:05:47.928Z,3.55
2023-03-24T09:08:19.891Z,3.35
2023-03-24T09:10:51.256Z,4.20
2023-03-24T09:13:21.348Z,2.70
2023-03-24T09:15:51.538Z,3.45
2023-03-24T09:18:21.532Z,4.30
2023-03-24T09:20:52.004Z,3.88
2023-03-24T09:23:21.575Z,4.03
2023-03-24T09:25:52.737Z,3.90
2023-03-24T09:28:21.533Z,3.97
2023-03-24T09:30:50.312Z,3.78
2023-03-24T09:33:18.910Z,4.25
2023-03-24T09:35:47.238Z,3.83
2023-03-24T09:38:15.663Z,3.75
2023-03-24T09:40:44.273Z,4.50
2023-03-24T09:43:26.317Z,3.97
2023-03-24T09:45:58.405Z,3.15
2023-03-24T09:48:36.441Z,3.70
2023-03-24T09:51:09.680Z,4.07
2023-03-24T09:53:45.202Z,2.92
2023-03-24T09:56:17.286Z,3.40
2023-03-24T09:58:51.702Z,3.35
2023-03-24T10:01:20.448Z,3.40
2023-03-24T10:03:48.899Z,3.15
2023-03-24T10:06:23.200Z,2.90
2023-03-24T10:08:59.845Z,3.22
2023-03-24T10:11:37.153Z,3.13
2023-03-24T10:14:22.805Z,2.88
2023-03-24T10:16:58.498Z,3.78
2023-03-24T10:19:41.141Z,3.30
2023-03-24T10:22:19.362Z,3.15
2023-03-24T10:24:54.466Z,3.20
2023-03-24T10:27:28.727Z,3.13
2023-03-24T10:30:05.771Z,2.63
2023-03-24T10:32:37.307Z,3.08
2023-03-24T10:35:10.105Z,2.78
2023-03-24T10:37:39.521Z,2.60
2023-03-24T10:40:19.147Z,3.13
2023-03-24T10:42:49.954Z,2.92
2023-03-24T10:45:41.078Z,2.72
2023-03-24T10:48:10.279Z,3.00
2023-03-24T10:50:45.342Z,2.63
2023-03-24T10:53:22.206Z,2.92
2023-03-24T10:55:51.112Z,3.05
2023-03-24T10:58:29.711Z,2.97
2023-03-24T11:01:02.162Z,3.13
2023-03-24T11:03:33.135Z,2.80
2023-03-24T11:06:04.291Z,2.75
2023-03-24T11:08:37.353Z,2.80
2023-03-24T11:11:22.800Z,2.95
2023-03-24T11:13:57.840Z,2.50
2023-03-24T11:16:32.413Z,2.80
2023-03-24T11:19:03.447Z,2.63
2023-03-24T11:21:35.995Z,3.28
2023-03-24T11:24:11.884Z,2.45
2023-03-24T11:26:41.916Z,2.40
2023-03-24T11:29:17.945Z,2.53
2023-03-24T11:31:55.215Z,2.67
2023-03-24T11:34:25.890Z,2.03
2023-03-24T11:36:56.102Z,2.35
2023-03-24T11:39:26.686Z,2.47
2023-03-24T11:42:12.584Z,2.53
2023-03-24T11:44:51.476Z,2.30
2023-03-24T11:47:27.771Z,2.50
2023-03-24T11:50:19.266Z,2.33
2023-03-24T11:52:53.795Z,2.17
2023-03-24T11:55:37.530Z,2.25
2023-03-24T11:58:16.187Z,2.53
2023-03-24T12:00:50.139Z,2.47
2023-03-24T12:04:00.870Z,2.38
2023-03-24T12:06:48.149Z,2.55
2023-03-24T12:09:24.563Z,2.38
2023-03-24T12:12:18.875Z,2.60
2023-03-24T12:15:20.664Z,2.72
2023-03-24T12:18:19.713Z,2.40
2023-03-24T12:20:55.971Z,2.53
2023-03-24T12:23:32.919Z,2.63
2023-03-24T12:26:17.727Z,2.40
2023-03-24T12:28:58.407Z,2.60
2023-03-24T12:32:10.659Z,2.67
2023-03-24T12:35:38.226Z,2.60
2023-03-24T12:38:27.615Z,2.22
2023-03-24T12:41:15.098Z,2.42
2023-03-24T12:43:52.274Z,2.55
2023-03-24T12:46:47.801Z,2.40
2023-03-24T12:49:39.636Z,1.98
2023-03-24T12:52:27.142Z,2.30
2023-03-24T12:55:05.059Z,2.28
2023-03-24T12:57:38.851Z,2.63
2023-03-24T13:00:14.140Z,2.08
2023-03-24T13:02:49.098Z,1.92
2023-03-24T13:05:22.260Z,1.70
2023-03-24T13:07:55.289Z,1.55
2023-03-24T13:10:29.654Z,1.80
2023-03-24T13:13:03.122Z,2.08
2023-03-24T13:15:36.305Z,1.95
2023-03-24T13:18:19.744Z,2.45
2023-03-24T13:20:54.470Z,2.40
2023-03-24T13:23:40.889Z,2.13
2023-03-24T13:26:26.102Z,2.38
2023-03-24T13:29:08.734Z,2.00
2023-03-24T13:31:42.347Z,2.08
2023-03-24T13:34:26.313Z,1.60
2023-03-24T13:37:01.229Z,1.70
2023-03-24T13:39:30.861Z,1.60
2023-03-24T13:42:02.114Z,2.20
2023-03-24T13:44:39.790Z,2.03
2023-03-24T13:47:14.632Z,1.73
2023-03-24T13:49:46.968Z,1.80
2023-03-24T13:52:29.325Z,1.88
2023-03-24T13:55:01.231Z,2.00
2023-03-24T13:57:31.753Z,1.70
2023-03-24T14:00:18.945Z,1.83
2023-03-24T14:02:50.428Z,1.83
2023-03-24T14:05:45.187Z,1.98
2023-03-24T14:08:17.891Z,2.58
2023-03-24T14:10:49.581Z,2.20
2023-03-24T14:13:38.146Z,2.05
2023-03-24T14:16:44.175Z,1.67
2023-03-24T14:19:39.487Z,2.50
2023-03-24T14:22:15.771Z,2.00
2023-03-24T14:24:47.341Z,2.08
2023-03-24T14:27:36.942Z,2.05
2023-03-24T14:30:20.549Z,1.55
2023-03-24T14:32:52.287Z,1.55
2023-03-24T14:35:43.478Z,1.90
2023-03-24T14:38:24.984Z,1.88
2023-03-24T14:40:58.589Z,2.53
2023-03-24T14:43:29.751Z,2.58
2023-03-24T14:46:04.413Z,2.25
2023-03-24T14:48:44.167Z,2.35
2023-03-24T14:51:36.605Z,2.50
2023-03-24T14:54:12.641Z,2.88
2023-03-24T14:56:44.641Z,2.53
2023-03-24T14:59:27.116Z,2.90
2023-03-24T15:02:05.173Z,2.88
2023-03-24T15:04:39.452Z,2.60
2023-03-24T15:07:07.929Z,2.70
2023-03-24T15:09:39.021Z,2.55
2023-03-24T15:12:07.852Z,2.70
2023-03-24T15:14:38.455Z,3.22
2023-03-24T15:17:20.026Z,3.88
2023-03-24T15:19:52.543Z,2.53
2023-03-24T15:22:21.789Z,2.85
2023-03-24T15:24:52.439Z,2.72
2023-03-24T15:27:26.602Z,3.58
2023-03-24T15:29:59.133Z,2.95
2023-03-24T15:32:32.686Z,2.88
2023-03-24T15:35:05.948Z,3.45
2023-03-24T15:37:40.579Z,3.03
2023-03-24T15:40:35.405Z,3.03
2023-03-24T15:43:06.725Z,2.90
2023-03-24T15:45:39.066Z,2.95
2023-03-24T15:48:15.413Z,2.78
2023-03-24T15:50:58.197Z,3.00
2023-03-24T15:53:30.255Z,3.15
2023-03-24T15:56:15.537Z,3.13
2023-03-24T15:58:51.098Z,2.85
2023-03-24T16:01:27.406Z,2.92
2023-03-24T16:03:57.882Z,2.40
2023-03-24T16:06:31.026Z,2.15
2023-03-24T16:09:06.735Z,2.45
2023-03-24T16:11:35.398Z,2.72
2023-03-24T16:14:15.746Z,2.58
2023-03-24T16:16:44.904Z,2.58
2023-03-24T16:19:14.912Z,2.63
2023-03-24T16:21:43.581Z,2.70
2023-03-24T16:24:12.410Z,2.92
2023-03-24T16:26:41.163Z,3.47
2023-03-24T16:29:18.858Z,2.90
2023-03-24T16:31:49.867Z,2.97
2023-03-24T16:34:21.631Z,3.08
2023-03-24T16:36:52.608Z,2.78
2023-03-24T16:39:23.759Z,2.35
2023-03-24T16:41:52.221Z,2.70
2023-03-24T16:44:21.466Z,2.40
2023-03-24T16:46:53.714Z,3.08
2023-03-24T16:49:24.615Z,2.90
2023-03-24T16:51:53.990Z,2.65
2023-03-24T16:54:22.605Z,2.80
2023-03-24T16:56:51.121Z,2.60
2023-03-24T16:59:19.876Z,2.58
2023-03-24T17:01:48.362Z,2.38
2023-03-24T17:04:19.731Z,5.10
2023-03-24T17:06:53.429Z,4.85
2023-03-24T17:09:22.750Z,3.78
2023-03-24T17:11:55.426Z,3.90
2023-03-24T17:14:51.332Z,4.97
2023-03-24T17:17:19.720Z,5.45
2023-03-24T17:19:48.040Z,10.82
2023-03-24T17:22:19.092Z,7.57
2023-03-24T17:24:48.252Z,3.92
2023-03-24T17:27:19.192Z,4.03
2023-03-24T17:29:47.564Z,3.40
2023-03-24T17:32:16.207Z,2.88
2023-03-24T17:34:47.472Z,2.47
2023-03-24T17:37:17.324Z,2.47
2023-03-24T17:39:45.669Z,2.70
2023-03-24T17:42:13.951Z,3.13
2023-03-24T17:44:42.336Z,2.70
2023-03-24T17:47:11.380Z,3.20
2023-03-24T17:49:39.713Z,2.53
2023-03-24T17:52:08.168Z,2.55
2023-03-24T17:54:38.048Z,2.35
2023-03-24T17:57:06.568Z,2.45
2023-03-24T17:59:37.256Z,2.72
2023-03-24T18:02:06.473Z,1.75
2023-03-24T18:04:35.391Z,2.70
2023-03-24T18:07:03.690Z,1.95
2023-03-24T18:09:33.906Z,1.95
2023-03-24T18:12:03.591Z,2.30
2023-03-24T18:14:32.129Z,2.10
2023-03-24T18:17:00.758Z,1.95
2023-03-24T18:19:29.169Z,1.92
2023-03-24T18:21:57.441Z,1.80
2023-03-24T18:24:26.501Z,2.58
2023-03-24T18:26:54.805Z,2.10
2023-03-24T18:29:25.128Z,2.13
2023-03-24T18:31:53.674Z,1.67
2023-03-24T18:34:22.857Z,2.28
2023-03-24T18:36:51.262Z,2.10
2023-03-24T18:39:19.580Z,2.72
2023-03-24T18:41:48.128Z,1.90
2023-03-24T18:44:16.813Z,1.98
2023-03-24T18:46:46.639Z,1.90
2023-03-24T18:49:15.764Z,1.50
2023-03-24T18:51:46.252Z,1.88
2023-03-24T18:54:15.382Z,1.50
2023-03-24T18:56:43.722Z,2.70
2023-03-24T18:59:13.099Z,1.63
2023-03-24T19:01:41.710Z,1.77
2023-03-24T19:04:11.848Z,2.25
2023-03-24T19:06:42.390Z,1.95
2023-03-24T19:09:12.663Z,1.77
2023-03-24T19:11:43.454Z,2.08
2023-03-24T19:14:12.025Z,1.35
2023-03-24T19:16:40.752Z,1.60
2023-03-24T19:19:10.995Z,1.85
2023-03-24T19:21:40.383Z,1.60
2023-03-24T19:24:09.590Z,2.33
2023-03-24T19:26:37.982Z,1.80
2023-03-24T19:29:06.356Z,2.05
2023-03-24T19:31:35.227Z,1.75
2023-03-24T19:34:03.748Z,1.90
2023-03-24T19:36:34.383Z,1.90
2023-03-24T19:39:03.022Z,1.95
2023-03-24T19:41:31.512Z,1.88
2023-03-24T19:43:59.964Z,2.08
2023-03-24T19:46:28.347Z,1.98
2023-03-24T19:48:56.848Z,1.65
2023-03-24T19:51:25.268Z,1.50
2023-03-24T19:53:54.979Z,1.90
2023-03-24T19:56:23.611Z,1.90
2023-03-24T19:58:52.140Z,1.85
2023-03-24T20:01:21.581Z,1.77
2023-03-24T20:03:50.044Z,2.10
2023-03-24T20:06:19.832Z,1.50
2023-03-24T20:08:48.413Z,1.70
2023-03-24T20:11:18.300Z,2.00
2023-03-24T20:13:46.738Z,2.10
2023-03-24T20:16:15.258Z,1.80
2023-03-24T20:18:43.656Z,1.80
2023-03-24T20:21:15.712Z,1.83
2023-03-24T20:23:44.102Z,1.98
2023-03-24T20:26:12.425Z,2.10
2023-03-24T20:28:42.102Z,1.80
2023-03-24T20:31:12.405Z,2.22
2023-03-24T20:33:41.284Z,1.75
2023-03-24T20:36:10.351Z,1.75
2023-03-24T20:38:38.980Z,1.63
2023-03-24T20:41:08.525Z,1.60
2023-03-24T20:43:39.276Z,2.05
2023-03-24T20:46:11.655Z,2.03
2023-03-24T20:48:40.035Z,2.10
2023-03-24T20:51:08.421Z,2.13
2023-03-24T20:53:36.850Z,1.60
2023-03-24T20:56:08.308Z,2.00
2023-03-24T20:58:38.736Z,2.00
2023-03-24T21:01:12.084Z,1.92
2023-03-24T21:03:41.355Z,1.60
2023-03-24T21:06:11.122Z,1.77
2023-03-24T21:08:41.891Z,1.95
2023-03-24T21:11:12.084Z,2.00
2023-03-24T21:13:41.328Z,1.95
2023-03-24T21:16:12.950Z,1.67
2023-03-24T21:18:43.990Z,1.48
2023-03-24T21:21:13.423Z,2.10
2023-03-24T21:23:43.132Z,2.20
2023-03-24T21:26:15.718Z,2.63
2023-03-24T21:28:44.550Z,2.25
2023-03-24T21:31:20.965Z,2.42
2023-03-24T21:33:49.818Z,2.15
2023-03-24T21:36:18.867Z,1.67
2023-03-24T21:38:49.948Z,1.30
2023-03-24T21:41:19.156Z,1.95
2023-03-24T21:43:51.236Z,1.77
2023-03-24T21:46:22.532Z,2.03
2023-03-24T21:48:52.757Z,2.13
2023-03-24T21:51:24.110Z,1.63
2023-03-24T21:53:55.756Z,1.90
2023-03-24T21:56:24.444Z,2.15
2023-03-24T21:58:55.948Z,1.60
2023-03-24T22:01:26.422Z,1.83
2023-03-24T22:03:55.922Z,1.60
2023-03-24T22:06:24.751Z,1.52
2023-03-24T22:08:58.233Z,1.92
2023-03-24T22:11:26.695Z,1.90
2023-03-24T22:13:55.210Z,1.52
2023-03-24T22:16:24.914Z,1.77
2023-03-24T22:18:54.175Z,1.75
2023-03-24T22:21:22.526Z,2.50
2023-03-24T22:23:51.037Z,1.67
2023-03-24T22:26:19.606Z,1.60
2023-03-24T22:28:47.987Z,1.98
2023-03-24T22:31:18.116Z,1.90
2023-03-24T22:33:48.088Z,1.83
2023-03-24T22:36:16.406Z,2.13
2023-03-24T22:38:44.769Z,1.75
2023-03-24T22:41:14.231Z,2.38
2023-03-24T22:43:42.897Z,2.00
2023-03-24T22:46:11.748Z,2.30
2023-03-24T22:48:40.957Z,2.00
2023-03-24T22:51:16.918Z,1.77
2023-03-24T22:53:45.354Z,1.98
2023-03-24T22:56:14.048Z,2.63
2023-03-24T22:58:42.801Z,2.28
2023-03-24T23:01:12.017Z,1.58
2023-03-24T23:03:41.018Z,1.73
2023-03-24T23:06:12.384Z,2.33
2023-03-24T23:08:41.140Z,2.38
2023-03-24T23:11:12.937Z,2.92
2023-03-24T23:13:41.673Z,2.58
2023-03-24T23:16:11.131Z,2.63
2023-03-24T23:18:40.290Z,2.40
2023-03-24T23:21:14.055Z,2.28
2023-03-24T23:23:43.848Z,2.47
2023-03-24T23:26:25.607Z,2.10
2023-03-24T23:28:55.249Z,2.90
2023-03-24T23:31:26.708Z,2.17
2023-03-24T23:33:58.092Z,2.47
2023-03-24T23:36:28.476Z,2.20
2023-03-24T23:38:57.139Z,2.63
2023-03-24T23:41:25.610Z,2.10
2023-03-24T23:43:56.272Z,2.22
2023-03-24T23:46:25.927Z,2.80
2023-03-24T23:48:54.342Z,2.33
2023-03-24T23:51:22.938Z,3.17
2023-03-24T23:53:53.084Z,2.70
2023-03-24T23:56:22.946Z,2.22
2023-03-24T23:58:52.300Z,2.10
